sensor_id;sensor_type;location;lat;lon;timestamp;temperature;humidity
15409;DHT22;7803;48.130;13.788;2023-06-22T00:01:43;25.40;91.10
15409;DHT22;7803;48.130;13.788;2023-06-22T00:04:44;25.50;91.10
15409;DHT22;7803;48.130;13.788;2023-06-22T00:07:48;25.40;91.10
15409;DHT22;7803;48.130;13.788;2023-06-22T00:10:50;25.50;91.10
15409;DHT22;7803;48.130;13.788;2023-06-22T00:13:52;25.50;91.20
15409;DHT22;7803;48.130;13.788;2023-06-22T00:16:54;25.50;91.10
15409;DHT22;7803;48.130;13.788;2023-06-22T00:19:57;25.50;91.10
15409;DHT22;7803;48.130;13.788;2023-06-22T00:23:03;25.50;91.10
15409;DHT22;7803;48.130;13.788;2023-06-22T00:26:08;25.50;91.10
15409;DHT22;7803;48.130;13.788;2023-06-22T00:29:11;25.50;91.20
15409;DHT22;7803;48.130;13.788;2023-06-22T00:32:13;25.50;91.20
15409;DHT22;7803;48.130;13.788;2023-06-22T00:35:15;25.50;91.10
15409;DHT22;7803;48.130;13.788;2023-06-22T00:38:18;25.50;91.50
15409;DHT22;7803;48.130;13.788;2023-06-22T00:41:20;25.50;91.20
15409;DHT22;7803;48.130;13.788;2023-06-22T00:44:22;25.40;91.10
15409;DHT22;7803;48.130;13.788;2023-06-22T00:47:24;25.50;91.20
15409;DHT22;7803;48.130;13.788;2023-06-22T00:50:27;25.50;91.10
15409;DHT22;7803;48.130;13.788;2023-06-22T00:53:35;25.50;91.10
15409;DHT22;7803;48.130;13.788;2023-06-22T00:56:37;25.50;91.10
15409;DHT22;7803;48.130;13.788;2023-06-22T00:59:39;25.50;91.10
15409;DHT22;7803;48.130;13.788;2023-06-22T01:02:41;25.50;91.10
15409;DHT22;7803;48.130;13.788;2023-06-22T01:05:46;25.40;91.10
15409;DHT22;7803;48.130;13.788;2023-06-22T01:08:57;25.50;91.10
15409;DHT22;7803;48.130;13.788;2023-06-22T01:12:05;25.50;91.10
15409;DHT22;7803;48.130;13.788;2023-06-22T01:15:10;25.50;91.10
15409;DHT22;7803;48.130;13.788;2023-06-22T01:18:14;25.50;91.10
15409;DHT22;7803;48.130;13.788;2023-06-22T01:21:18;25.50;91.10
15409;DHT22;7803;48.130;13.788;2023-06-22T01:24:25;25.50;91.10
15409;DHT22;7803;48.130;13.788;2023-06-22T01:27:36;25.50;91.20
15409;DHT22;7803;48.130;13.788;2023-06-22T01:30:45;25.50;91.10
15409;DHT22;7803;48.130;13.788;2023-06-22T01:33:51;25.50;91.10
15409;DHT22;7803;48.130;13.788;2023-06-22T01:36:54;25.50;91.20
15409;DHT22;7803;48.130;13.788;2023-06-22T01:39:57;25.50;91.20
15409;DHT22;7803;48.130;13.788;2023-06-22T01:43:00;25.50;91.10
15409;DHT22;7803;48.130;13.788;2023-06-22T01:46:04;25.50;91.10
15409;DHT22;7803;48.130;13.788;2023-06-22T01:49:06;25.50;91.10
15409;DHT22;7803;48.130;13.788;2023-06-22T01:52:09;25.50;91.10
15409;DHT22;7803;48.130;13.788;2023-06-22T01:55:11;25.50;91.10
15409;DHT22;7803;48.130;13.788;2023-06-22T01:58:13;25.50;91.10
15409;DHT22;7803;48.130;13.788;2023-06-22T02:01:22;25.50;91.10
15409;DHT22;7803;48.130;13.788;2023-06-22T02:04:32;25.50;91.10
15409;DHT22;7803;48.130;13.788;2023-06-22T02:07:41;25.50;91.10
15409;DHT22;7803;48.130;13.788;2023-06-22T02:10:47;25.50;91.10
15409;DHT22;7803;48.130;13.788;2023-06-22T02:13:50;25.50;91.10
15409;DHT22;7803;48.130;13.788;2023-06-22T02:16:54;25.50;91.20
15409;DHT22;7803;48.130;13.788;2023-06-22T02:20:00;25.50;91.10
15409;DHT22;7803;48.130;13.788;2023-06-22T02:23:03;25.50;91.20
15409;DHT22;7803;48.130;13.788;2023-06-22T02:26:05;25.50;91.10
15409;DHT22;7803;48.130;13.788;2023-06-22T02:29:07;25.50;91.10
15409;DHT22;7803;48.130;13.788;2023-06-22T02:32:10;25.50;91.20
15409;DHT22;7803;48.130;13.788;2023-06-22T02:35:12;25.50;91.10
15409;DHT22;7803;48.130;13.788;2023-06-22T02:38:15;25.50;91.10
15409;DHT22;7803;48.130;13.788;2023-06-22T02:41:18;25.50;91.10
15409;DHT22;7803;48.130;13.788;2023-06-22T02:44:20;25.50;91.10
15409;DHT22;7803;48.130;13.788;2023-06-22T02:47:24;25.50;91.10
15409;DHT22;7803;48.130;13.788;2023-06-22T02:50:26;25.50;91.10
15409;DHT22;7803;48.130;13.788;2023-06-22T02:53:27;25.50;91.10
15409;DHT22;7803;48.130;13.788;2023-06-22T02:56:29;25.50;91.10
15409;DHT22;7803;48.130;13.788;2023-06-22T02:59:31;25.50;91.10
15409;DHT22;7803;48.130;13.788;2023-06-22T03:02:35;25.50;91.10
15409;DHT22;7803;48.130;13.788;2023-06-22T03:05:37;25.50;91.10
15409;DHT22;7803;48.130;13.788;2023-06-22T03:08:40;25.50;91.10
15409;DHT22;7803;48.130;13.788;2023-06-22T03:11:43;25.50;91.10
15409;DHT22;7803;48.130;13.788;2023-06-22T03:14:45;25.50;91.10
15409;DHT22;7803;48.130;13.788;2023-06-22T03:17:48;25.50;91.10
15409;DHT22;7803;48.130;13.788;2023-06-22T03:20:50;25.50;91.10
15409;DHT22;7803;48.130;13.788;2023-06-22T03:23:52;25.50;91.20
15409;DHT22;7803;48.130;13.788;2023-06-22T03:26:54;25.50;91.20
15409;DHT22;7803;48.130;13.788;2023-06-22T03:29:57;25.60;91.20
15409;DHT22;7803;48.130;13.788;2023-06-22T03:33:01;25.50;91.10
15409;DHT22;7803;48.130;13.788;2023-06-22T03:36:04;25.50;91.10
15409;DHT22;7803;48.130;13.788;2023-06-22T03:39:06;25.50;91.10
15409;DHT22;7803;48.130;13.788;2023-06-22T03:42:08;25.50;91.10
15409;DHT22;7803;48.130;13.788;2023-06-22T03:45:10;25.50;91.10
15409;DHT22;7803;48.130;13.788;2023-06-22T03:48:14;25.50;91.10
15409;DHT22;7803;48.130;13.788;2023-06-22T03:51:16;25.50;91.10
15409;DHT22;7803;48.130;13.788;2023-06-22T03:54:18;25.50;91.10
15409;DHT22;7803;48.130;13.788;2023-06-22T03:57:20;25.50;91.20
15409;DHT22;7803;48.130;13.788;2023-06-22T04:00:22;25.50;91.20
15409;DHT22;7803;48.130;13.788;2023-06-22T04:03:25;25.50;91.20
15409;DHT22;7803;48.130;13.788;2023-06-22T04:06:27;25.50;91.20
15409;DHT22;7803;48.130;13.788;2023-06-22T04:09:29;25.50;91.20
15409;DHT22;7803;48.130;13.788;2023-06-22T04:12:31;25.50;91.20
15409;DHT22;7803;48.130;13.788;2023-06-22T04:15:33;25.50;91.20
15409;DHT22;7803;48.130;13.788;2023-06-22T04:18:36;25.50;91.30
15409;DHT22;7803;48.130;13.788;2023-06-22T04:21:38;25.50;91.30
15409;DHT22;7803;48.130;13.788;2023-06-22T04:24:41;25.50;91.30
15409;DHT22;7803;48.130;13.788;2023-06-22T04:27:43;25.50;91.30
15409;DHT22;7803;48.130;13.788;2023-06-22T04:30:45;25.50;91.30
15409;DHT22;7803;48.130;13.788;2023-06-22T04:33:49;25.50;91.30
15409;DHT22;7803;48.130;13.788;2023-06-22T04:36:52;25.50;91.30
15409;DHT22;7803;48.130;13.788;2023-06-22T04:39:54;25.50;91.30
15409;DHT22;7803;48.130;13.788;2023-06-22T04:42:56;25.50;91.20
15409;DHT22;7803;48.130;13.788;2023-06-22T04:45:58;25.50;91.20
15409;DHT22;7803;48.130;13.788;2023-06-22T04:49:06;25.50;91.20
15409;DHT22;7803;48.130;13.788;2023-06-22T04:52:11;25.50;91.10
15409;DHT22;7803;48.130;13.788;2023-06-22T04:55:15;25.50;91.10
15409;DHT22;7803;48.130;13.788;2023-06-22T04:58:18;25.50;91.10
15409;DHT22;7803;48.130;13.788;2023-06-22T05:01:22;25.50;91.20
15409;DHT22;7803;48.130;13.788;2023-06-22T05:04:26;25.50;91.20
15409;DHT22;7803;48.130;13.788;2023-06-22T05:07:28;25.50;91.20
15409;DHT22;7803;48.130;13.788;2023-06-22T05:10:30;25.50;91.20
15409;DHT22;7803;48.130;13.788;2023-06-22T05:13:32;25.50;91.20
15409;DHT22;7803;48.130;13.788;2023-06-22T05:16:34;25.50;91.20
15409;DHT22;7803;48.130;13.788;2023-06-22T05:19:38;25.50;91.20
15409;DHT22;7803;48.130;13.788;2023-06-22T05:22:40;25.50;91.20
15409;DHT22;7803;48.130;13.788;2023-06-22T05:25:43;25.50;91.20
15409;DHT22;7803;48.130;13.788;2023-06-22T05:28:45;25.50;91.20
15409;DHT22;7803;48.130;13.788;2023-06-22T05:31:48;25.60;91.20
15409;DHT22;7803;48.130;13.788;2023-06-22T05:34:51;25.60;91.20
15409;DHT22;7803;48.130;13.788;2023-06-22T05:37:53;25.60;91.30
15409;DHT22;7803;48.130;13.788;2023-06-22T05:40:56;25.60;91.30
15409;DHT22;7803;48.130;13.788;2023-06-22T05:43:58;25.60;91.20
15409;DHT22;7803;48.130;13.788;2023-06-22T05:46:59;25.60;91.30
15409;DHT22;7803;48.130;13.788;2023-06-22T05:50:03;25.60;91.20
15409;DHT22;7803;48.130;13.788;2023-06-22T05:53:07;25.60;91.20
15409;DHT22;7803;48.130;13.788;2023-06-22T05:56:09;25.60;91.30
15409;DHT22;7803;48.130;13.788;2023-06-22T05:59:11;25.60;91.30
15409;DHT22;7803;48.130;13.788;2023-06-22T06:02:13;25.60;91.30
15409;DHT22;7803;48.130;13.788;2023-06-22T06:05:17;25.60;91.30
15409;DHT22;7803;48.130;13.788;2023-06-22T06:08:20;25.60;91.30
15409;DHT22;7803;48.130;13.788;2023-06-22T06:11:22;25.70;91.30
15409;DHT22;7803;48.130;13.788;2023-06-22T06:14:24;25.60;91.20
15409;DHT22;7803;48.130;13.788;2023-06-22T06:17:26;25.70;91.20
15409;DHT22;7803;48.130;13.788;2023-06-22T06:20:30;25.70;91.20
15409;DHT22;7803;48.130;13.788;2023-06-22T06:23:32;25.70;91.20
15409;DHT22;7803;48.130;13.788;2023-06-22T06:26:34;25.70;91.30
15409;DHT22;7803;48.130;13.788;2023-06-22T06:29:36;25.70;91.20
15409;DHT22;7803;48.130;13.788;2023-06-22T06:32:38;25.60;91.20
15409;DHT22;7803;48.130;13.788;2023-06-22T06:35:42;25.70;91.30
15409;DHT22;7803;48.130;13.788;2023-06-22T06:38:44;25.70;91.30
15409;DHT22;7803;48.130;13.788;2023-06-22T06:41:47;25.70;91.30
15409;DHT22;7803;48.130;13.788;2023-06-22T06:44:49;25.70;91.30
15409;DHT22;7803;48.130;13.788;2023-06-22T06:47:51;25.70;91.30
15409;DHT22;7803;48.130;13.788;2023-06-22T06:50:55;25.70;91.30
15409;DHT22;7803;48.130;13.788;2023-06-22T06:53:57;25.70;91.30
15409;DHT22;7803;48.130;13.788;2023-06-22T06:56:59;25.70;91.30
15409;DHT22;7803;48.130;13.788;2023-06-22T07:00:04;25.70;91.30
15409;DHT22;7803;48.130;13.788;2023-06-22T07:03:11;25.70;91.30
15409;DHT22;7803;48.130;13.788;2023-06-22T07:06:14;25.70;91.30
15409;DHT22;7803;48.130;13.788;2023-06-22T07:09:17;25.70;91.30
15409;DHT22;7803;48.130;13.788;2023-06-22T07:12:19;25.70;91.20
15409;DHT22;7803;48.130;13.788;2023-06-22T07:15:21;25.70;91.20
15409;DHT22;7803;48.130;13.788;2023-06-22T07:18:24;25.70;91.20
15409;DHT22;7803;48.130;13.788;2023-06-22T07:21:28;25.70;91.20
15409;DHT22;7803;48.130;13.788;2023-06-22T07:24:30;25.80;91.30
15409;DHT22;7803;48.130;13.788;2023-06-22T07:27:33;25.70;91.20
15409;DHT22;7803;48.130;13.788;2023-06-22T07:30:36;25.70;91.30
15409;DHT22;7803;48.130;13.788;2023-06-22T07:33:38;25.80;91.30
15409;DHT22;7803;48.130;13.788;2023-06-22T07:36:41;25.80;91.30
15409;DHT22;7803;48.130;13.788;2023-06-22T07:39:43;25.80;91.30
15409;DHT22;7803;48.130;13.788;2023-06-22T07:42:45;25.70;91.30
15409;DHT22;7803;48.130;13.788;2023-06-22T07:45:49;25.70;91.30
15409;DHT22;7803;48.130;13.788;2023-06-22T07:48:52;25.70;91.30
15409;DHT22;7803;48.130;13.788;2023-06-22T07:51:56;25.70;91.30
15409;DHT22;7803;48.130;13.788;2023-06-22T07:54:58;25.70;91.30
15409;DHT22;7803;48.130;13.788;2023-06-22T07:58:00;25.70;91.30
15409;DHT22;7803;48.130;13.788;2023-06-22T08:01:02;25.70;91.30
15409;DHT22;7803;48.130;13.788;2023-06-22T08:04:04;25.70;91.30
15409;DHT22;7803;48.130;13.788;2023-06-22T08:07:08;25.70;91.30
15409;DHT22;7803;48.130;13.788;2023-06-22T08:10:11;25.80;91.40
15409;DHT22;7803;48.130;13.788;2023-06-22T08:13:14;25.80;91.30
15409;DHT22;7803;48.130;13.788;2023-06-22T08:16:15;25.80;91.30
15409;DHT22;7803;48.130;13.788;2023-06-22T08:19:17;25.80;91.40
15409;DHT22;7803;48.130;13.788;2023-06-22T08:22:21;25.80;91.40
15409;DHT22;7803;48.130;13.788;2023-06-22T08:25:23;25.70;91.30
15409;DHT22;7803;48.130;13.788;2023-06-22T08:28:25;25.80;91.40
15409;DHT22;7803;48.130;13.788;2023-06-22T08:31:27;25.80;91.40
15409;DHT22;7803;48.130;13.788;2023-06-22T08:34:29;25.80;91.40
15409;DHT22;7803;48.130;13.788;2023-06-22T08:37:32;25.80;91.40
15409;DHT22;7803;48.130;13.788;2023-06-22T08:40:36;25.70;91.40
15409;DHT22;7803;48.130;13.788;2023-06-22T08:43:37;25.70;91.40
15409;DHT22;7803;48.130;13.788;2023-06-22T08:46:39;25.80;91.40
15409;DHT22;7803;48.130;13.788;2023-06-22T08:49:42;25.80;91.40
15409;DHT22;7803;48.130;13.788;2023-06-22T08:52:46;25.70;91.40
15409;DHT22;7803;48.130;13.788;2023-06-22T08:55:48;25.80;91.40
15409;DHT22;7803;48.130;13.788;2023-06-22T08:58:51;25.80;91.40
15409;DHT22;7803;48.130;13.788;2023-06-22T09:01:53;25.70;91.40
15409;DHT22;7803;48.130;13.788;2023-06-22T09:04:56;25.80;91.40
15409;DHT22;7803;48.130;13.788;2023-06-22T09:07:59;25.80;91.40
15409;DHT22;7803;48.130;13.788;2023-06-22T09:11:01;25.80;91.40
15409;DHT22;7803;48.130;13.788;2023-06-22T09:14:03;25.80;91.40
15409;DHT22;7803;48.130;13.788;2023-06-22T09:17:06;25.80;91.40
15409;DHT22;7803;48.130;13.788;2023-06-22T09:20:09;25.80;91.40
15409;DHT22;7803;48.130;13.788;2023-06-22T09:23:13;25.80;91.40
15409;DHT22;7803;48.130;13.788;2023-06-22T09:26:15;25.80;91.40
15409;DHT22;7803;48.130;13.788;2023-06-22T09:29:17;25.80;91.50
15409;DHT22;7803;48.130;13.788;2023-06-22T09:32:19;25.80;91.50
15409;DHT22;7803;48.130;13.788;2023-06-22T09:35:21;25.80;91.50
15409;DHT22;7803;48.130;13.788;2023-06-22T09:38:25;25.80;91.50
15409;DHT22;7803;48.130;13.788;2023-06-22T09:41:27;25.80;91.50
15409;DHT22;7803;48.130;13.788;2023-06-22T09:44:29;25.80;91.50
15409;DHT22;7803;48.130;13.788;2023-06-22T09:47:31;25.80;91.40
15409;DHT22;7803;48.130;13.788;2023-06-22T09:50:33;25.80;91.50
15409;DHT22;7803;48.130;13.788;2023-06-22T09:53:36;25.80;91.40
15409;DHT22;7803;48.130;13.788;2023-06-22T09:56:38;25.80;91.50
15409;DHT22;7803;48.130;13.788;2023-06-22T09:59:41;25.80;91.50
15409;DHT22;7803;48.130;13.788;2023-06-22T10:02:43;25.80;91.40
15409;DHT22;7803;48.130;13.788;2023-06-22T10:05:45;25.80;91.40
15409;DHT22;7803;48.130;13.788;2023-06-22T10:08:50;25.80;91.40
15409;DHT22;7803;48.130;13.788;2023-06-22T10:11:52;25.80;91.40
15409;DHT22;7803;48.130;13.788;2023-06-22T10:14:54;25.80;91.40
15409;DHT22;7803;48.130;13.788;2023-06-22T10:17:56;25.80;91.50
15409;DHT22;7803;48.130;13.788;2023-06-22T10:20:58;25.80;91.50
15409;DHT22;7803;48.130;13.788;2023-06-22T10:24:01;25.80;91.50
15409;DHT22;7803;48.130;13.788;2023-06-22T10:27:07;25.80;91.50
15409;DHT22;7803;48.130;13.788;2023-06-22T10:30:10;25.80;91.50
15409;DHT22;7803;48.130;13.788;2023-06-22T10:33:13;25.80;91.60
15409;DHT22;7803;48.130;13.788;2023-06-22T10:36:15;25.80;91.60
15409;DHT22;7803;48.130;13.788;2023-06-22T10:39:18;25.80;91.50
15409;DHT22;7803;48.130;13.788;2023-06-22T10:42:20;25.80;91.50
15409;DHT22;7803;48.130;13.788;2023-06-22T10:45:22;25.80;91.60
15409;DHT22;7803;48.130;13.788;2023-06-22T10:48:24;25.80;91.50
15409;DHT22;7803;48.130;13.788;2023-06-22T10:51:26;25.80;91.50
15409;DHT22;7803;48.130;13.788;2023-06-22T10:54:30;25.80;91.50
15409;DHT22;7803;48.130;13.788;2023-06-22T10:57:33;25.80;91.50
15409;DHT22;7803;48.130;13.788;2023-06-22T11:00:35;25.80;91.50
15409;DHT22;7803;48.130;13.788;2023-06-22T11:03:37;25.80;91.50
15409;DHT22;7803;48.130;13.788;2023-06-22T11:06:39;25.80;91.50
15409;DHT22;7803;48.130;13.788;2023-06-22T11:09:43;25.80;91.50
15409;DHT22;7803;48.130;13.788;2023-06-22T11:12:45;25.80;91.50
15409;DHT22;7803;48.130;13.788;2023-06-22T11:15:47;25.80;91.60
15409;DHT22;7803;48.130;13.788;2023-06-22T11:18:49;25.80;91.60
15409;DHT22;7803;48.130;13.788;2023-06-22T11:21:50;25.80;91.60
15409;DHT22;7803;48.130;13.788;2023-06-22T11:24:54;25.80;91.60
15409;DHT22;7803;48.130;13.788;2023-06-22T11:27:56;25.80;91.60
15409;DHT22;7803;48.130;13.788;2023-06-22T11:30:58;25.80;91.60
15409;DHT22;7803;48.130;13.788;2023-06-22T11:34:01;25.80;91.60
15409;DHT22;7803;48.130;13.788;2023-06-22T11:37:03;25.80;91.60
15409;DHT22;7803;48.130;13.788;2023-06-22T11:40:08;25.80;91.60
15409;DHT22;7803;48.130;13.788;2023-06-22T11:43:10;25.80;91.60
15409;DHT22;7803;48.130;13.788;2023-06-22T11:46:12;25.80;91.60
15409;DHT22;7803;48.130;13.788;2023-06-22T11:49:14;25.80;91.60
15409;DHT22;7803;48.130;13.788;2023-06-22T11:52:16;25.90;91.60
15409;DHT22;7803;48.130;13.788;2023-06-22T11:55:21;25.80;91.50
15409;DHT22;7803;48.130;13.788;2023-06-22T11:58:23;25.90;91.60
15409;DHT22;7803;48.130;13.788;2023-06-22T12:01:25;25.80;91.60
15409;DHT22;7803;48.130;13.788;2023-06-22T12:04:27;25.80;91.60
15409;DHT22;7803;48.130;13.788;2023-06-22T12:07:29;25.90;91.70
15409;DHT22;7803;48.130;13.788;2023-06-22T12:10:32;25.80;91.60
15409;DHT22;7803;48.130;13.788;2023-06-22T12:13:35;25.80;91.60
15409;DHT22;7803;48.130;13.788;2023-06-22T12:16:36;25.80;91.60
15409;DHT22;7803;48.130;13.788;2023-06-22T12:19:39;25.80;91.60
15409;DHT22;7803;48.130;13.788;2023-06-22T12:22:41;25.80;91.60
15409;DHT22;7803;48.130;13.788;2023-06-22T12:25:46;25.80;91.60
15409;DHT22;7803;48.130;13.788;2023-06-22T12:28:48;25.80;91.60
15409;DHT22;7803;48.130;13.788;2023-06-22T12:31:50;25.80;91.60
15409;DHT22;7803;48.130;13.788;2023-06-22T12:34:52;25.90;91.70
15409;DHT22;7803;48.130;13.788;2023-06-22T12:37:54;25.80;91.60
15409;DHT22;7803;48.130;13.788;2023-06-22T12:40:57;25.90;91.70
15409;DHT22;7803;48.130;13.788;2023-06-22T12:43:59;25.90;91.70
15409;DHT22;7803;48.130;13.788;2023-06-22T12:47:01;25.90;91.60
15409;DHT22;7803;48.130;13.788;2023-06-22T12:50:04;25.90;91.60
15409;DHT22;7803;48.130;13.788;2023-06-22T12:53:06;25.90;91.60
15409;DHT22;7803;48.130;13.788;2023-06-22T12:56:10;25.90;91.70
15409;DHT22;7803;48.130;13.788;2023-06-22T12:59:12;25.90;91.70
15409;DHT22;7803;48.130;13.788;2023-06-22T13:02:14;25.80;91.60
15409;DHT22;7803;48.130;13.788;2023-06-22T13:05:16;25.90;91.70
15409;DHT22;7803;48.130;13.788;2023-06-22T13:08:18;25.90;91.70
15409;DHT22;7803;48.130;13.788;2023-06-22T13:11:21;25.80;91.60
15409;DHT22;7803;48.130;13.788;2023-06-22T13:14:23;25.90;91.70
15409;DHT22;7803;48.130;13.788;2023-06-22T13:17:25;25.90;91.70
15409;DHT22;7803;48.130;13.788;2023-06-22T13:20:29;25.90;91.70
15409;DHT22;7803;48.130;13.788;2023-06-22T13:23:31;25.90;91.70
15409;DHT22;7803;48.130;13.788;2023-06-22T13:26:34;25.90;91.70
15409;DHT22;7803;48.130;13.788;2023-06-22T13:29:36;25.90;91.70
15409;DHT22;7803;48.130;13.788;2023-06-22T13:32:38;25.90;91.70
15409;DHT22;7803;48.130;13.788;2023-06-22T13:35:42;25.90;91.70
15409;DHT22;7803;48.130;13.788;2023-06-22T13:38:44;25.90;91.70
15409;DHT22;7803;48.130;13.788;2023-06-22T13:41:47;25.90;91.70
15409;DHT22;7803;48.130;13.788;2023-06-22T13:44:49;25.90;91.70
15409;DHT22;7803;48.130;13.788;2023-06-22T13:47:51;25.90;91.60
15409;DHT22;7803;48.130;13.788;2023-06-22T13:50:55;25.90;91.70
15409;DHT22;7803;48.130;13.788;2023-06-22T13:53:57;25.90;91.70
15409;DHT22;7803;48.130;13.788;2023-06-22T13:57:01;25.90;91.70
15409;DHT22;7803;48.130;13.788;2023-06-22T14:00:04;26.00;91.80
15409;DHT22;7803;48.130;13.788;2023-06-22T14:03:06;26.00;91.80
15409;DHT22;7803;48.130;13.788;2023-06-22T14:06:08;25.90;91.70
15409;DHT22;7803;48.130;13.788;2023-06-22T14:09:11;25.90;91.70
15409;DHT22;7803;48.130;13.788;2023-06-22T14:12:15;26.00;91.80
15409;DHT22;7803;48.130;13.788;2023-06-22T14:15:18;25.90;91.80
15409;DHT22;7803;48.130;13.788;2023-06-22T14:18:20;26.00;91.80
15409;DHT22;7803;48.130;13.788;2023-06-22T14:21:23;25.90;91.70
15409;DHT22;7803;48.130;13.788;2023-06-22T14:24:25;26.00;91.80
15409;DHT22;7803;48.130;13.788;2023-06-22T14:27:29;25.90;91.80
15409;DHT22;7803;48.130;13.788;2023-06-22T14:30:31;25.90;91.80
15409;DHT22;7803;48.130;13.788;2023-06-22T14:33:33;25.90;91.80
15409;DHT22;7803;48.130;13.788;2023-06-22T14:36:35;26.00;91.80
15409;DHT22;7803;48.130;13.788;2023-06-22T14:39:37;26.00;91.80
15409;DHT22;7803;48.130;13.788;2023-06-22T14:42:41;26.00;91.70
15409;DHT22;7803;48.130;13.788;2023-06-22T14:45:43;26.00;91.80
15409;DHT22;7803;48.130;13.788;2023-06-22T14:48:45;26.00;91.80
15409;DHT22;7803;48.130;13.788;2023-06-22T14:51:47;26.00;91.90
15409;DHT22;7803;48.130;13.788;2023-06-22T14:54:49;26.00;92.30
15409;DHT22;7803;48.130;13.788;2023-06-22T14:57:54;26.00;91.90
15409;DHT22;7803;48.130;13.788;2023-06-22T15:00:56;26.00;91.90
15409;DHT22;7803;48.130;13.788;2023-06-22T15:03:58;26.00;91.90
15409;DHT22;7803;48.130;13.788;2023-06-22T15:07:00;26.00;91.90
15409;DHT22;7803;48.130;13.788;2023-06-22T15:10:02;26.00;91.90
15409;DHT22;7803;48.130;13.788;2023-06-22T15:13:05;26.00;91.90
15409;DHT22;7803;48.130;13.788;2023-06-22T15:16:08;26.00;91.90
15409;DHT22;7803;48.130;13.788;2023-06-22T15:19:10;26.00;91.90
15409;DHT22;7803;48.130;13.788;2023-06-22T15:22:13;26.00;92.00
15409;DHT22;7803;48.130;13.788;2023-06-22T15:25:17;26.00;92.00
15409;DHT22;7803;48.130;13.788;2023-06-22T15:28:20;26.00;92.00
15409;DHT22;7803;48.130;13.788;2023-06-22T15:31:22;26.00;92.00
15409;DHT22;7803;48.130;13.788;2023-06-22T15:34:24;26.00;91.90
15409;DHT22;7803;48.130;13.788;2023-06-22T15:37:26;26.00;91.90
15409;DHT22;7803;48.130;13.788;2023-06-22T15:40:28;26.00;91.90
15409;DHT22;7803;48.130;13.788;2023-06-22T15:43:32;26.00;92.00
15409;DHT22;7803;48.130;13.788;2023-06-22T15:46:34;26.00;92.00
15409;DHT22;7803;48.130;13.788;2023-06-22T15:49:35;26.00;92.00
15409;DHT22;7803;48.130;13.788;2023-06-22T15:52:39;26.00;92.00
15409;DHT22;7803;48.130;13.788;2023-06-22T15:55:41;26.00;92.00
15409;DHT22;7803;48.130;13.788;2023-06-22T15:58:44;26.00;92.00
15409;DHT22;7803;48.130;13.788;2023-06-22T16:01:46;26.00;92.00
15409;DHT22;7803;48.130;13.788;2023-06-22T16:04:48;26.00;92.10
15409;DHT22;7803;48.130;13.788;2023-06-22T16:07:51;26.00;92.10
15409;DHT22;7803;48.130;13.788;2023-06-22T16:10:53;26.00;92.10
15409;DHT22;7803;48.130;13.788;2023-06-22T16:13:56;26.00;92.10
15409;DHT22;7803;48.130;13.788;2023-06-22T16:16:58;26.00;92.10
15409;DHT22;7803;48.130;13.788;2023-06-22T16:20:00;26.00;92.10
15409;DHT22;7803;48.130;13.788;2023-06-22T16:23:03;26.10;92.20
15409;DHT22;7803;48.130;13.788;2023-06-22T16:26:04;26.00;92.10
15409;DHT22;7803;48.130;13.788;2023-06-22T16:29:09;26.10;92.10
15409;DHT22;7803;48.130;13.788;2023-06-22T16:32:11;26.10;92.10
15409;DHT22;7803;48.130;13.788;2023-06-22T16:35:14;26.00;92.10
15409;DHT22;7803;48.130;13.788;2023-06-22T16:38:16;26.10;92.20
15409;DHT22;7803;48.130;13.788;2023-06-22T16:41:18;26.10;92.20
15409;DHT22;7803;48.130;13.788;2023-06-22T16:44:21;26.00;92.20
15409;DHT22;7803;48.130;13.788;2023-06-22T16:47:23;26.10;92.20
15409;DHT22;7803;48.130;13.788;2023-06-22T16:50:26;26.00;92.20
15409;DHT22;7803;48.130;13.788;2023-06-22T16:53:28;26.10;92.20
15409;DHT22;7803;48.130;13.788;2023-06-22T16:56:30;26.10;92.30
15409;DHT22;7803;48.130;13.788;2023-06-22T16:59:33;26.10;92.30
15409;DHT22;7803;48.130;13.788;2023-06-22T17:02:42;26.10;92.30
15409;DHT22;7803;48.130;13.788;2023-06-22T17:05:45;26.10;92.30
15409;DHT22;7803;48.130;13.788;2023-06-22T17:08:47;26.00;92.30
15409;DHT22;7803;48.130;13.788;2023-06-22T17:11:51;26.10;92.40
15409;DHT22;7803;48.130;13.788;2023-06-22T17:14:57;26.10;92.40
15409;DHT22;7803;48.130;13.788;2023-06-22T17:18:01;26.10;92.40
15409;DHT22;7803;48.130;13.788;2023-06-22T17:21:03;26.10;92.40
15409;DHT22;7803;48.130;13.788;2023-06-22T17:24:05;26.10;92.40
15409;DHT22;7803;48.130;13.788;2023-06-22T17:27:07;26.10;92.40
15409;DHT22;7803;48.130;13.788;2023-06-22T17:30:12;26.10;92.40
15409;DHT22;7803;48.130;13.788;2023-06-22T17:33:17;26.10;92.50
15409;DHT22;7803;48.130;13.788;2023-06-22T17:36:21;26.10;92.50
15409;DHT22;7803;48.130;13.788;2023-06-22T17:39:24;26.10;92.60
15409;DHT22;7803;48.130;13.788;2023-06-22T17:42:28;26.10;92.60
15409;DHT22;7803;48.130;13.788;2023-06-22T17:45:31;26.10;92.60
15409;DHT22;7803;48.130;13.788;2023-06-22T17:48:33;26.10;92.60
15409;DHT22;7803;48.130;13.788;2023-06-22T17:51:35;26.10;92.60
15409;DHT22;7803;48.130;13.788;2023-06-22T17:54:38;26.10;92.70
15409;DHT22;7803;48.130;13.788;2023-06-22T17:57:41;26.10;92.70
15409;DHT22;7803;48.130;13.788;2023-06-22T18:00:48;26.10;92.80
15409;DHT22;7803;48.130;13.788;2023-06-22T18:03:50;26.10;92.80
15409;DHT22;7803;48.130;13.788;2023-06-22T18:06:53;26.10;92.80
15409;DHT22;7803;48.130;13.788;2023-06-22T18:09:57;26.10;92.90
15409;DHT22;7803;48.130;13.788;2023-06-22T18:13:00;26.10;92.90
15409;DHT22;7803;48.130;13.788;2023-06-22T18:16:05;26.10;92.90
15409;DHT22;7803;48.130;13.788;2023-06-22T18:19:08;26.10;92.90
15409;DHT22;7803;48.130;13.788;2023-06-22T18:22:11;26.10;92.90
15409;DHT22;7803;48.130;13.788;2023-06-22T18:25:13;26.10;92.90
15409;DHT22;7803;48.130;13.788;2023-06-22T18:28:18;26.20;93.00
15409;DHT22;7803;48.130;13.788;2023-06-22T18:31:23;26.10;93.00
15409;DHT22;7803;48.130;13.788;2023-06-22T18:34:26;26.10;92.90
15409;DHT22;7803;48.130;13.788;2023-06-22T18:37:31;26.20;93.00
15409;DHT22;7803;48.130;13.788;2023-06-22T18:40:34;26.10;93.00
15409;DHT22;7803;48.130;13.788;2023-06-22T18:43:39;26.10;93.00
15409;DHT22;7803;48.130;13.788;2023-06-22T18:46:42;26.10;93.00
15409;DHT22;7803;48.130;13.788;2023-06-22T18:49:47;26.10;93.00
15409;DHT22;7803;48.130;13.788;2023-06-22T18:53:02;26.10;93.00
15409;DHT22;7803;48.130;13.788;2023-06-22T18:56:11;26.10;93.10
15409;DHT22;7803;48.130;13.788;2023-06-22T18:59:14;26.20;93.10
15409;DHT22;7803;48.130;13.788;2023-06-22T19:02:35;26.10;93.00
15409;DHT22;7803;48.130;13.788;2023-06-22T19:05:42;26.20;93.10
15409;DHT22;7803;48.130;13.788;2023-06-22T19:09:14;26.20;93.10
15409;DHT22;7803;48.130;13.788;2023-06-22T19:12:22;26.10;93.10
15409;DHT22;7803;48.130;13.788;2023-06-22T19:15:33;26.20;93.10